Indian, Alaska
Current Conditions -  °F | °C
As of 7:53 AM on Sunday 23 Nov 2014 (Local Time) from PALH Reporting Station
Clear Clear  
Wind Chill: 24°   Ceiling: Unl
Heat Index: 29°   Visibility: 10mi
Dew Point: 23°   Wind: 5mph
Humidity: 78%   Direction: 30°NNE
Pressure: 29.4"   Gusts: NA
Location:  61.17°N, 149.95°W
Report Text: PALH 231653Z 03004KT 10SM CLR M02/M05 A2940 RMK AO2 SLP955 T10171050
Loading
Personal Weather Stations






























Interactive Weather Map New forecast layout! Learn more

10-Day Weather Forecast

Advertisements
Track Severe Weather on mobile